Time;durP1;ratioP1;P1;durP2;ratioP2;P2;SDS_P1;SDS_P2;PMS_P1;PMS_P2;Temp;Humidity;BMP_temperature;BMP_pressure;BME280_temperature;BME280_humidity;BME280_pressure;Samples;Min_cycle;Max_cycle;Signal;HPM_P1;HPM_P2
2022/04/28 00:02:01;;;;;;;24.13;11.67;;;;;;;;;;5032180;28;20041;-59
2022/04/28 00:04:27;;;;;;;27.07;12.30;;;;;;;;;;5030980;28;20288;-59
2022/04/28 00:06:53;;;;;;;24.47;11.60;;;;;;;;;;5042668;28;20064;-59
2022/04/28 00:09:19;;;;;;;25.83;11.53;;;;;;;;;;5052121;28;20300;-59
2022/04/28 00:11:45;;;;;;;26.77;11.93;;;;;;;;;;5037877;28;20334;-59
2022/04/28 00:14:11;;;;;;;27.03;12.83;;;;;;;;;;5032359;28;20041;-59
2022/04/28 00:16:37;;;;;;;29.13;13.37;;;;;;;;;;5032215;28;20314;-59
2022/04/28 00:19:03;;;;;;;23.93;11.47;;;;;;;;;;5032199;28;20288;-59
2022/04/28 00:21:30;;;;;;;25.70;11.53;;;;;;;;;;5033403;28;20400;-59
2022/04/28 00:23:56;;;;;;;29.23;13.50;;;;;;;;;;5050541;28;20289;-58
2022/04/28 00:26:22;;;;;;;28.03;12.33;;;;;;;;;;5052006;28;20292;-59
2022/04/28 00:28:48;;;;;;;32.00;12.57;;;;;;;;;;5051315;28;20298;-59
2022/04/28 00:31:14;;;;;;;29.47;12.33;;;;;;;;;;5051511;28;20045;-59
2022/04/28 00:33:41;;;;;;;29.60;11.30;;;;;;;;;;5051672;28;20276;-59
2022/04/28 00:36:07;;;;;;;29.47;12.50;;;;;;;;;;5050881;28;20692;-59
2022/04/28 00:38:33;;;;;;;26.40;13.17;;;;;;;;;;5051682;28;20091;-59
2022/04/28 00:40:59;;;;;;;27.77;11.23;;;;;;;;;;5045347;28;20288;-59
2022/04/28 00:43:28;;;;;;;24.80;11.53;;;;;;;;;;5031215;28;20963;-59
2022/04/28 00:45:55;;;;;;;24.17;12.37;;;;;;;;;;5031420;28;20513;-59
2022/04/28 00:51:06;;;;;;;31.10;12.73;;;;;;;;;;5050828;28;21180;-59
2022/04/28 00:53:36;;;;;;;35.43;13.10;;;;;;;;;;5051182;28;20382;-59
2022/04/28 00:56:02;;;;;;;32.87;13.00;;;;;;;;;;5051137;28;20347;-59
2022/04/28 00:58:28;;;;;;;26.53;12.37;;;;;;;;;;5050699;28;20099;-59
2022/04/28 01:00:56;;;;;;;30.40;11.67;;;;;;;;;;5050112;28;20891;-59
2022/04/28 01:03:30;;;;;;;37.63;12.17;;;;;;;;;;5050789;28;20060;-59
2022/04/28 01:05:56;;;;;;;29.30;12.07;;;;;;;;;;5049754;28;20844;-59
2022/04/28 01:08:22;;;;;;;28.97;11.93;;;;;;;;;;5050802;28;20081;-59
2022/04/28 01:10:48;;;;;;;42.73;13.33;;;;;;;;;;5050833;28;20048;-59
2022/04/28 01:13:14;;;;;;;27.37;13.07;;;;;;;;;;5050615;28;20302;-59
2022/04/28 01:15:44;;;;;;;32.83;13.43;;;;;;;;;;5050798;28;20275;-59
2022/04/28 01:18:10;;;;;;;28.67;12.67;;;;;;;;;;5049941;28;20048;-60
2022/04/28 01:20:36;;;;;;;37.17;12.63;;;;;;;;;;5050685;28;20846;-59
2022/04/28 01:23:04;;;;;;;33.63;13.67;;;;;;;;;;5050294;28;20773;-59
2022/04/28 01:25:30;;;;;;;34.37;14.50;;;;;;;;;;5050620;28;20789;-59
2022/04/28 01:27:57;;;;;;;31.73;13.33;;;;;;;;;;5050417;28;20291;-59
2022/04/28 01:30:23;;;;;;;34.63;13.40;;;;;;;;;;5049177;28;21024;-59
2022/04/28 01:32:49;;;;;;;28.90;13.33;;;;;;;;;;5050077;28;20295;-59
2022/04/28 01:35:15;;;;;;;31.20;13.20;;;;;;;;;;5046202;28;20345;-59
2022/04/28 01:37:41;;;;;;;33.60;13.73;;;;;;;;;;5030167;28;20327;-59
2022/04/28 01:40:11;;;;;;;31.73;13.57;;;;;;;;;;5029969;28;20346;-59
2022/04/28 01:42:47;;;;;;;27.10;12.57;;;;;;;;;;5030432;28;20700;-59
2022/04/28 01:45:14;;;;;;;34.13;13.20;;;;;;;;;;5030346;28;20794;-59
2022/04/28 01:47:40;;;;;;;24.73;12.03;;;;;;;;;;5030260;28;20314;-59
2022/04/28 01:50:08;;;;;;;31.10;11.83;;;;;;;;;;5030027;28;20288;-59
2022/04/28 01:55:19;;;;;;;34.63;12.43;;;;;;;;;;5029570;28;20327;-59
2022/04/28 01:57:46;;;;;;;31.57;11.90;;;;;;;;;;5029554;28;20398;-59
2022/04/28 02:00:12;;;;;;;42.10;14.23;;;;;;;;;;5030394;28;20292;-59
2022/04/28 02:02:39;;;;;;;31.87;13.07;;;;;;;;;;5029838;28;20668;-59
2022/04/28 02:05:05;;;;;;;31.27;11.77;;;;;;;;;;5030023;28;20285;-59
2022/04/28 02:07:32;;;;;;;33.97;14.10;;;;;;;;;;5030264;28;20315;-59
2022/04/28 02:09:58;;;;;;;34.17;12.83;;;;;;;;;;5029999;28;20107;-59
2022/04/28 02:12:25;;;;;;;33.47;13.93;;;;;;;;;;5029991;28;20358;-59
2022/04/28 02:14:51;;;;;;;28.97;12.60;;;;;;;;;;5029682;28;20284;-59
2022/04/28 02:17:18;;;;;;;31.00;14.43;;;;;;;;;;5029429;28;20526;-59
2022/04/28 02:19:44;;;;;;;44.23;14.10;;;;;;;;;;5047064;28;20296;-59
2022/04/28 02:22:10;;;;;;;33.13;14.23;;;;;;;;;;5048439;28;20340;-59
2022/04/28 02:24:36;;;;;;;40.23;14.07;;;;;;;;;;5049702;28;20546;-60
2022/04/28 02:27:02;;;;;;;37.37;13.50;;;;;;;;;;5049526;28;20475;-59
2022/04/28 02:29:28;;;;;;;30.57;12.33;;;;;;;;;;5047911;28;20858;-59
2022/04/28 02:31:54;;;;;;;27.63;12.30;;;;;;;;;;5049339;28;20458;-59
2022/04/28 02:34:20;;;;;;;27.67;10.87;;;;;;;;;;5049387;28;20371;-59
2022/04/28 02:36:46;;;;;;;35.30;13.60;;;;;;;;;;5048974;28;20049;-60
2022/04/28 02:39:14;;;;;;;34.90;13.90;;;;;;;;;;5032479;28;20084;-59
2022/04/28 02:41:40;;;;;;;27.60;12.77;;;;;;;;;;5029718;28;20288;-60
2022/04/28 02:44:07;;;;;;;31.73;13.33;;;;;;;;;;5028627;28;20694;-59
2022/04/28 02:46:33;;;;;;;36.93;14.13;;;;;;;;;;5029640;28;20371;-59
2022/04/28 02:48:59;;;;;;;37.37;15.47;;;;;;;;;;5029420;28;20796;-60
2022/04/28 02:51:26;;;;;;;46.03;15.80;;;;;;;;;;5046937;28;20294;-60
2022/04/28 02:53:52;;;;;;;47.27;16.23;;;;;;;;;;5049076;28;20345;-59
2022/04/28 02:56:18;;;;;;;48.33;17.80;;;;;;;;;;5047560;28;20361;-59
2022/04/28 02:58:44;;;;;;;35.77;15.67;;;;;;;;;;5048190;28;20295;-59
2022/04/28 03:01:10;;;;;;;47.07;17.53;;;;;;;;;;5048690;28;20345;-60
2022/04/28 03:03:36;;;;;;;45.07;16.30;;;;;;;;;;5048893;28;20287;-59
2022/04/28 03:11:32;;;;;;;37.87;15.13;;;;;;;;;;5029055;28;20077;-59
2022/04/28 03:13:59;;;;;;;32.57;16.57;;;;;;;;;;5032292;28;20052;-60
2022/04/28 03:16:25;;;;;;;37.47;15.87;;;;;;;;;;5037125;28;20395;-60
2022/04/28 03:18:51;;;;;;;45.67;17.17;;;;;;;;;;5039196;28;20049;-60
2022/04/28 03:21:17;;;;;;;40.50;16.23;;;;;;;;;;5036813;28;20284;-60
2022/04/28 03:23:43;;;;;;;44.33;16.47;;;;;;;;;;5036566;28;20084;-60
2022/04/28 03:26:09;;;;;;;36.10;15.70;;;;;;;;;;5039506;28;20033;-60
2022/04/28 03:28:36;;;;;;;34.67;16.13;;;;;;;;;;5033718;28;20053;-60
2022/04/28 03:31:06;;;;;;;36.00;16.83;;;;;;;;;;5036727;28;20298;-60
2022/04/28 03:33:32;;;;;;;35.27;15.47;;;;;;;;;;5039000;28;20411;-60
2022/04/28 03:35:59;;;;;;;35.80;16.10;;;;;;;;;;5036576;28;20090;-60
2022/04/28 03:38:25;;;;;;;42.03;16.50;;;;;;;;;;5036754;28;20346;-60
2022/04/28 03:40:51;;;;;;;35.07;15.70;;;;;;;;;;5039037;28;20470;-60
2022/04/28 03:43:17;;;;;;;33.03;14.83;;;;;;;;;;5045324;28;20045;-60
2022/04/28 03:45:44;;;;;;;36.30;16.27;;;;;;;;;;5047554;28;20060;-60
2022/04/28 03:48:10;;;;;;;38.83;16.20;;;;;;;;;;5046724;28;20513;-60
2022/04/28 03:50:37;;;;;;;36.43;15.70;;;;;;;;;;5048548;28;20045;-60
2022/04/28 03:53:04;;;;;;;34.40;16.30;;;;;;;;;;5048050;28;20045;-60
2022/04/28 03:55:30;;;;;;;34.47;15.73;;;;;;;;;;5048259;28;20045;-60
2022/04/28 03:57:56;;;;;;;30.97;16.03;;;;;;;;;;5048246;28;20170;-60
2022/04/28 04:00:22;;;;;;;27.60;16.53;;;;;;;;;;5046955;28;20911;-61
2022/04/28 04:02:48;;;;;;;33.00;16.43;;;;;;;;;;5048486;28;20052;-60
2022/04/28 04:05:15;;;;;;;36.33;16.63;;;;;;;;;;5048175;28;20574;-60
2022/04/28 04:07:42;;;;;;;45.53;17.90;;;;;;;;;;5042075;28;20053;-60
2022/04/28 04:10:09;;;;;;;44.80;17.27;;;;;;;;;;5028356;28;20050;-60
2022/04/28 04:12:35;;;;;;;34.73;15.90;;;;;;;;;;5037444;28;20071;-60
2022/04/28 04:15:01;;;;;;;39.93;16.07;;;;;;;;;;5048301;28;20490;-60
2022/04/28 04:17:27;;;;;;;30.80;16.23;;;;;;;;;;5049078;28;20045;-60
2022/04/28 04:19:53;;;;;;;31.60;14.63;;;;;;;;;;5050582;28;20098;-60
2022/04/28 04:22:19;;;;;;;41.03;17.40;;;;;;;;;;5051739;28;20049;-60
2022/04/28 04:24:45;;;;;;;32.67;16.57;;;;;;;;;;5051895;28;20422;-60
2022/04/28 04:27:12;;;;;;;27.97;15.73;;;;;;;;;;5051384;28;20052;-60
2022/04/28 04:29:38;;;;;;;32.27;16.00;;;;;;;;;;5031016;28;20061;-60
2022/04/28 04:32:38;;;;;;;30.13;17.77;;;;;;;;;;5031294;28;20526;-60
2022/04/28 04:34:57;;;;;;;33.47;15.67;;;;;;;;;;5032747;28;20056;-60
2022/04/28 04:37:23;;;;;;;35.90;16.33;;;;;;;;;;5039825;28;20053;-61
2022/04/28 04:39:49;;;;;;;31.07;15.67;;;;;;;;;;5031390;28;20168;-61
2022/04/28 04:42:15;;;;;;;35.37;16.30;;;;;;;;;;5030697;28;20507;-61
2022/04/28 04:44:41;;;;;;;27.30;15.10;;;;;;;;;;5050877;28;20604;-60
2022/04/28 04:47:07;;;;;;;34.93;16.40;;;;;;;;;;5051116;28;20045;-61
2022/04/28 04:49:34;;;;;;;30.77;15.13;;;;;;;;;;5050429;28;20466;-61
2022/04/28 04:52:02;;;;;;;30.83;14.50;;;;;;;;;;5049821;28;20045;-60
2022/04/28 04:54:28;;;;;;;27.77;13.83;;;;;;;;;;5049904;28;20410;-60
2022/04/28 04:56:54;;;;;;;23.23;13.93;;;;;;;;;;5050635;28;20045;-61
2022/04/28 04:59:20;;;;;;;26.43;14.57;;;;;;;;;;5051040;28;20574;-61
2022/04/28 05:01:46;;;;;;;25.77;13.80;;;;;;;;;;5039038;28;20045;-60
2022/04/28 05:04:12;;;;;;;26.43;14.50;;;;;;;;;;5035733;28;20132;-61
2022/04/28 05:06:38;;;;;;;28.80;13.50;;;;;;;;;;5033422;28;20792;-61
2022/04/28 05:09:04;;;;;;;32.07;16.27;;;;;;;;;;5041587;28;20544;-60
2022/04/28 05:11:30;;;;;;;23.40;12.97;;;;;;;;;;5037822;28;20041;-60
2022/04/28 05:13:56;;;;;;;25.90;14.87;;;;;;;;;;5039344;28;20042;-61
2022/04/28 05:16:22;;;;;;;21.67;14.03;;;;;;;;;;5040097;28;20052;-61
2022/04/28 05:18:48;;;;;;;25.97;15.13;;;;;;;;;;5039464;28;20042;-61
2022/04/28 05:21:14;;;;;;;27.93;14.63;;;;;;;;;;5037937;28;20049;-61
2022/04/28 05:23:40;;;;;;;27.27;13.87;;;;;;;;;;5038840;28;20106;-61
2022/04/28 05:26:06;;;;;;;22.93;13.27;;;;;;;;;;5039355;28;20041;-61
2022/04/28 05:28:32;;;;;;;25.70;13.53;;;;;;;;;;5038695;28;20049;-61
2022/04/28 05:30:58;;;;;;;26.97;13.80;;;;;;;;;;5029677;28;20060;-61
2022/04/28 05:33:24;;;;;;;20.20;13.37;;;;;;;;;;5035597;28;20049;-61
2022/04/28 05:35:50;;;;;;;25.27;13.73;;;;;;;;;;5050082;28;20113;-61
2022/04/28 05:38:16;;;;;;;22.73;12.37;;;;;;;;;;5049661;28;20045;-61
2022/04/28 05:40:43;;;;;;;16.87;10.47;;;;;;;;;;5050170;28;20047;-61
2022/04/28 05:45:55;;;;;;;16.97;10.10;;;;;;;;;;5029783;28;20069;-61
2022/04/28 05:48:21;;;;;;;19.00;10.70;;;;;;;;;;5029922;28;20431;-61
2022/04/28 05:50:47;;;;;;;15.17;6.23;;;;;;;;;;5029555;28;20666;-60
2022/04/28 05:53:14;;;;;;;21.13;9.37;;;;;;;;;;5030201;28;20041;-61
2022/04/28 05:55:41;;;;;;;17.43;10.70;;;;;;;;;;5029569;28;20038;-61
2022/04/28 05:58:07;;;;;;;16.33;9.63;;;;;;;;;;5029754;28;20111;-61
2022/04/28 06:00:34;;;;;;;19.87;11.03;;;;;;;;;;5029986;28;20487;-61
2022/04/28 06:03:00;;;;;;;16.87;9.57;;;;;;;;;;5032500;28;20037;-61
2022/04/28 06:05:26;;;;;;;15.07;8.87;;;;;;;;;;5049259;28;20048;-61
2022/04/28 06:07:53;;;;;;;13.43;8.40;;;;;;;;;;5031023;28;20128;-61
2022/04/28 06:10:19;;;;;;;16.57;9.67;;;;;;;;;;5029749;28;20041;-61
2022/04/28 06:12:45;;;;;;;18.53;9.07;;;;;;;;;;5036315;28;20120;-61
2022/04/28 06:15:13;;;;;;;18.70;8.37;;;;;;;;;;5047534;28;20049;-61
2022/04/28 06:17:40;;;;;;;14.90;7.10;;;;;;;;;;5032822;28;20057;-61
2022/04/28 06:20:06;;;;;;;14.87;7.37;;;;;;;;;;5048025;28;20045;-61
2022/04/28 06:22:32;;;;;;;14.37;6.57;;;;;;;;;;5049168;28;20045;-61
2022/04/28 06:24:58;;;;;;;10.80;6.00;;;;;;;;;;5048671;28;20049;-61
2022/04/28 06:27:25;;;;;;;14.37;7.40;;;;;;;;;;5028380;28;20558;-61
2022/04/28 06:29:52;;;;;;;16.47;6.70;;;;;;;;;;5043268;28;20057;-62
2022/04/28 06:32:19;;;;;;;15.10;6.63;;;;;;;;;;5047808;28;20080;-61
2022/04/28 06:34:45;;;;;;;14.17;6.30;;;;;;;;;;5030592;28;20057;-61
2022/04/28 06:37:12;;;;;;;11.83;5.53;;;;;;;;;;5040658;28;20052;-61
2022/04/28 06:39:39;;;;;;;13.63;5.93;;;;;;;;;;5040066;28;20051;-61
2022/04/28 06:42:05;;;;;;;9.90;5.50;;;;;;;;;;5049023;28;20047;-61
2022/04/28 06:44:31;;;;;;;16.57;7.40;;;;;;;;;;5048830;28;20044;-61
2022/04/28 06:46:57;;;;;;;13.63;5.60;;;;;;;;;;5048550;28;20097;-61
2022/04/28 06:49:23;;;;;;;11.43;4.33;;;;;;;;;;5048938;28;20045;-61
2022/04/28 06:51:49;;;;;;;15.73;4.87;;;;;;;;;;5048837;28;20045;-61
2022/04/28 06:54:15;;;;;;;13.37;4.40;;;;;;;;;;5048994;28;20049;-61
2022/04/28 06:56:41;;;;;;;13.10;5.57;;;;;;;;;;5046937;28;20525;-60
2022/04/28 06:59:07;;;;;;;12.17;4.27;;;;;;;;;;5048872;28;20056;-61
2022/04/28 07:01:33;;;;;;;11.73;4.50;;;;;;;;;;5047432;28;20056;-61
2022/04/28 07:03:59;;;;;;;11.97;3.77;;;;;;;;;;5048853;28;20507;-60
2022/04/28 07:06:25;;;;;;;8.83;3.63;;;;;;;;;;5052260;28;20048;-65
2022/04/28 07:08:51;;;;;;;12.13;4.20;;;;;;;;;;5048969;28;20565;-61
2022/04/28 07:11:17;;;;;;;10.60;4.23;;;;;;;;;;5036977;28;20044;-61
2022/04/28 07:13:43;;;;;;;10.77;4.27;;;;;;;;;;5061103;28;20045;-61
2022/04/28 07:16:09;;;;;;;7.27;3.63;;;;;;;;;;5068573;28;20043;-61
2022/04/28 07:18:35;;;;;;;8.40;3.73;;;;;;;;;;5039031;28;20218;-61
2022/04/28 07:21:02;;;;;;;11.73;4.17;;;;;;;;;;5036210;28;20049;-61
2022/04/28 07:23:28;;;;;;;12.67;3.97;;;;;;;;;;5036111;28;20041;-61
2022/04/28 07:25:54;;;;;;;9.67;4.00;;;;;;;;;;5041252;28;20124;-61
2022/04/28 07:28:20;;;;;;;10.50;3.20;;;;;;;;;;5038891;28;20068;-61
2022/04/28 07:30:46;;;;;;;11.27;3.87;;;;;;;;;;5039154;28;20091;-61
2022/04/28 07:33:12;;;;;;;12.93;4.37;;;;;;;;;;5039414;28;20077;-61
2022/04/28 07:35:38;;;;;;;13.50;4.17;;;;;;;;;;5038588;28;20049;-61
2022/04/28 07:38:05;;;;;;;10.73;3.57;;;;;;;;;;5032827;28;20049;-61
2022/04/28 07:40:31;;;;;;;13.70;4.00;;;;;;;;;;5036760;28;20049;-60
2022/04/28 07:42:58;;;;;;;12.23;4.13;;;;;;;;;;5059354;28;20040;-61
2022/04/28 07:45:24;;;;;;;9.53;4.30;;;;;;;;;;5053849;28;20045;-61
2022/04/28 07:47:50;;;;;;;14.63;3.57;;;;;;;;;;5038585;28;20099;-61
2022/04/28 07:50:16;;;;;;;8.93;3.70;;;;;;;;;;5036893;28;20037;-61
2022/04/28 07:52:43;;;;;;;10.57;3.83;;;;;;;;;;5042310;28;20049;-61
2022/04/28 07:55:09;;;;;;;12.63;4.00;;;;;;;;;;5050478;28;20041;-61
2022/04/28 07:57:35;;;;;;;8.63;3.20;;;;;;;;;;5033287;28;20056;-61
2022/04/28 08:00:03;;;;;;;8.80;3.13;;;;;;;;;;5037457;28;20040;-60
2022/04/28 08:02:29;;;;;;;8.17;3.37;;;;;;;;;;5040671;28;20533;-60
2022/04/28 08:04:56;;;;;;;9.90;4.37;;;;;;;;;;5051749;28;20045;-61
2022/04/28 08:07:22;;;;;;;14.10;4.40;;;;;;;;;;5051639;28;20037;-61
2022/04/28 08:09:48;;;;;;;10.27;3.90;;;;;;;;;;5046967;28;20475;-60
2022/04/28 08:12:14;;;;;;;13.60;3.87;;;;;;;;;;5044213;28;20045;-61
2022/04/28 08:14:40;;;;;;;10.03;4.17;;;;;;;;;;5041779;28;20052;-61
2022/04/28 08:17:06;;;;;;;9.37;3.30;;;;;;;;;;5039844;28;20051;-61
2022/04/28 08:19:33;;;;;;;9.70;4.13;;;;;;;;;;5047808;28;20041;-61
2022/04/28 08:21:59;;;;;;;11.27;3.53;;;;;;;;;;5040474;28;20036;-60
2022/04/28 08:24:25;;;;;;;12.13;3.47;;;;;;;;;;5051102;28;20132;-61
2022/04/28 08:26:54;;;;;;;9.67;3.23;;;;;;;;;;5037453;28;20199;-58
2022/04/28 08:29:20;;;;;;;12.20;4.20;;;;;;;;;;5031346;28;20474;-61
2022/04/28 08:31:46;;;;;;;7.53;3.13;;;;;;;;;;5031178;28;20057;-61
2022/04/28 08:34:17;;;;;;;6.93;3.43;;;;;;;;;;5030505;28;20041;-61
2022/04/28 08:36:44;;;;;;;13.87;3.67;;;;;;;;;;5063796;28;20045;-61
2022/04/28 08:39:10;;;;;;;9.43;3.90;;;;;;;;;;5054778;28;20038;-61
2022/04/28 08:41:42;;;;;;;8.23;3.30;;;;;;;;;;5052036;28;20174;-61
2022/04/28 08:44:13;;;;;;;10.47;3.23;;;;;;;;;;5055040;28;20147;-61
2022/04/28 08:46:51;;;;;;;11.90;3.23;;;;;;;;;;5069498;28;20127;-61
2022/04/28 08:49:22;;;;;;;11.90;3.77;;;;;;;;;;5062559;28;20033;-61
2022/04/28 08:51:50;;;;;;;14.03;3.37;;;;;;;;;;5048115;28;20098;-61
2022/04/28 08:54:16;;;;;;;9.30;4.53;;;;;;;;;;5048218;28;20032;-62
2022/04/28 08:56:42;;;;;;;8.90;3.33;;;;;;;;;;5047877;28;20473;-61
2022/04/28 08:59:09;;;;;;;11.07;3.07;;;;;;;;;;5036924;28;20041;-61
2022/04/28 09:01:35;;;;;;;7.97;3.20;;;;;;;;;;5070526;28;20049;-61
2022/04/28 09:04:05;;;;;;;8.60;2.80;;;;;;;;;;5049478;28;20148;-61
2022/04/28 09:06:34;;;;;;;6.93;2.60;;;;;;;;;;5052990;28;20041;-61
2022/04/28 09:09:01;;;;;;;9.93;3.13;;;;;;;;;;5059678;28;20072;-61
2022/04/28 09:11:28;;;;;;;8.10;3.67;;;;;;;;;;5030204;28;20041;-61
2022/04/28 09:14:14;;;;;;;7.17;2.37;;;;;;;;;;5050009;28;20457;-61
2022/04/28 09:16:45;;;;;;;4.83;2.00;;;;;;;;;;5050609;28;20052;-61
2022/04/28 09:19:16;;;;;;;8.70;3.30;;;;;;;;;;5058849;28;20044;-61
2022/04/28 09:21:42;;;;;;;6.03;2.33;;;;;;;;;;5050225;28;20040;-61
2022/04/28 09:24:09;;;;;;;7.10;2.20;;;;;;;;;;5052992;28;20077;-61
2022/04/28 09:26:36;;;;;;;9.87;2.30;;;;;;;;;;5054806;28;20041;-61
2022/04/28 09:29:02;;;;;;;6.37;2.03;;;;;;;;;;5055459;28;20475;-61
2022/04/28 09:31:38;;;;;;;9.23;2.63;;;;;;;;;;5069560;28;20045;-61
2022/04/28 09:34:17;;;;;;;8.63;2.27;;;;;;;;;;5070210;28;20052;-61
2022/04/28 09:36:43;;;;;;;6.57;2.40;;;;;;;;;;5055321;28;20049;-61
2022/04/28 09:39:13;;;;;;;8.23;3.53;;;;;;;;;;5046001;28;20041;-61
2022/04/28 09:44:25;;;;;;;6.40;2.37;;;;;;;;;;5069989;28;20048;-61
2022/04/28 09:46:51;;;;;;;7.20;2.20;;;;;;;;;;5055310;28;20045;-61
2022/04/28 09:49:19;;;;;;;9.03;2.33;;;;;;;;;;5049056;28;20049;-61
2022/04/28 09:51:46;;;;;;;8.33;2.37;;;;;;;;;;5049655;28;20045;-62
2022/04/28 09:54:17;;;;;;;11.50;2.60;;;;;;;;;;5045132;28;20052;-62
2022/04/28 09:56:45;;;;;;;9.10;2.60;;;;;;;;;;5030007;28;20052;-66
2022/04/28 09:59:13;;;;;;;8.67;2.67;;;;;;;;;;5028643;28;20107;-61
2022/04/28 10:01:39;;;;;;;7.53;2.00;;;;;;;;;;5028254;28;20060;-62
2022/04/28 10:04:06;;;;;;;6.67;2.40;;;;;;;;;;5053812;28;20051;-62
2022/04/28 10:06:35;;;;;;;6.63;2.17;;;;;;;;;;5058396;28;20558;-62
2022/04/28 10:09:05;;;;;;;9.73;2.20;;;;;;;;;;5031269;28;20072;-62
2022/04/28 10:11:32;;;;;;;7.47;1.97;;;;;;;;;;5048923;28;20554;-62
2022/04/28 10:13:59;;;;;;;7.07;1.90;;;;;;;;;;5049601;28;20495;-62
2022/04/28 10:16:26;;;;;;;5.93;2.23;;;;;;;;;;5049165;28;20059;-62
2022/04/28 10:19:01;;;;;;;9.10;2.27;;;;;;;;;;5048988;28;20517;-62
2022/04/28 10:21:33;;;;;;;9.33;2.20;;;;;;;;;;5049575;28;20131;-62
2022/04/28 10:32:47;;;;;;;6.93;2.17;;;;;;;;;;5038981;28;20048;-62
2022/04/28 10:35:14;;;;;;;7.57;2.13;;;;;;;;;;5038063;28;20120;-62
2022/04/28 10:37:41;;;;;;;9.30;2.63;;;;;;;;;;5046120;28;20128;-62
2022/04/28 10:40:12;;;;;;;6.63;1.97;;;;;;;;;;5040246;28;20095;-62
2022/04/28 10:42:38;;;;;;;6.33;1.70;;;;;;;;;;5041811;28;20045;-62
2022/04/28 10:45:18;;;;;;;9.03;1.97;;;;;;;;;;5038505;28;20410;-62
2022/04/28 10:47:44;;;;;;;6.50;1.80;;;;;;;;;;5045296;28;20515;-62
2022/04/28 10:50:21;;;;;;;9.60;1.90;;;;;;;;;;5046703;28;20041;-62
2022/04/28 10:52:54;;;;;;;9.97;2.20;;;;;;;;;;5054916;28;20056;-62
2022/04/28 10:55:23;;;;;;;;;;;;;;;;;;5049497;28;20560;-62
2022/04/28 10:57:49;;;;;;;7.07;2.27;;;;;;;;;;5064293;28;19956;-62
2022/04/28 11:00:33;;;;;;;13.80;2.70;;;;;;;;;;5041284;28;20114;-62
2022/04/28 11:02:59;;;;;;;7.63;2.33;;;;;;;;;;5032319;28;20046;-62
2022/04/28 11:05:27;;;;;;;8.53;2.73;;;;;;;;;;5034295;28;20044;-62
2022/04/28 11:07:53;;;;;;;7.17;2.00;;;;;;;;;;5040481;28;20132;-62
2022/04/28 11:10:19;;;;;;;4.60;2.10;;;;;;;;;;5068325;28;20524;-62
2022/04/28 11:12:45;;;;;;;6.70;1.70;;;;;;;;;;5034928;28;20495;-62
2022/04/28 11:15:13;;;;;;;9.97;2.20;;;;;;;;;;5038420;28;20472;-62
2022/04/28 11:17:41;;;;;;;7.17;2.70;;;;;;;;;;5035770;28;20549;-62
2022/04/28 11:20:12;;;;;;;7.30;1.90;;;;;;;;;;5039214;28;20047;-62
2022/04/28 11:22:41;;;;;;;7.17;2.30;;;;;;;;;;5042850;28;20502;-62
2022/04/28 11:25:12;;;;;;;9.00;2.47;;;;;;;;;;5046731;28;20056;-62
2022/04/28 11:27:40;;;;;;;3.93;1.80;;;;;;;;;;5046405;28;20048;-63
2022/04/28 11:30:06;;;;;;;9.23;2.90;;;;;;;;;;5040167;28;20054;-62
2022/04/28 11:32:32;;;;;;;6.77;2.00;;;;;;;;;;5044174;28;20033;-62
2022/04/28 11:34:59;;;;;;;7.77;2.60;;;;;;;;;;5065678;28;20040;-62
2022/04/28 11:37:26;;;;;;;7.50;2.30;;;;;;;;;;5056674;28;20495;-62
2022/04/28 11:39:53;;;;;;;8.67;2.17;;;;;;;;;;5049464;28;20084;-63
2022/04/28 11:42:20;;;;;;;8.93;2.50;;;;;;;;;;5049133;28;20520;-63
2022/04/28 11:44:53;;;;;;;5.40;2.00;;;;;;;;;;5031633;28;20057;-62
2022/04/28 11:47:20;;;;;;;10.38;2.28;;;;;;;;;;5066159;28;20090;-62
2022/04/28 11:49:49;;;;;;;7.30;2.45;;;;;;;;;;5070728;28;20536;-61
2022/04/28 11:52:21;;;;;;;6.63;2.40;;;;;;;;;;5059334;28;20605;-61
2022/04/28 11:55:12;;;;;;;8.65;2.17;;;;;;;;;;5049833;28;20052;-62
2022/04/28 11:57:39;;;;;;;8.65;2.13;;;;;;;;;;5045103;28;20049;-62
2022/04/28 12:00:10;;;;;;;7.32;2.17;;;;;;;;;;5051124;28;20041;-62
2022/04/28 12:02:36;;;;;;;6.75;1.90;;;;;;;;;;5049351;28;20083;-61
2022/04/28 12:05:06;;;;;;;8.88;2.60;;;;;;;;;;5048959;28;20064;-62
2022/04/28 12:07:33;;;;;;;6.57;2.10;;;;;;;;;;5054762;28;20057;-62
2022/04/28 12:15:28;;;;;;;8.68;2.92;;;;;;;;;;5041607;28;20045;-62
2022/04/28 12:20:56;;;;;;;10.73;2.22;;;;;;;;;;5031926;28;20041;-62
2022/04/28 12:23:38;;;;;;;6.57;2.63;;;;;;;;;;5065604;28;20421;-62
2022/04/28 12:26:06;;;;;;;9.10;2.88;;;;;;;;;;5031824;28;20045;-62
2022/04/28 12:28:32;;;;;;;6.10;2.53;;;;;;;;;;5047642;28;20071;-62
2022/04/28 12:30:59;;;;;;;5.88;2.05;;;;;;;;;;5046694;28;20045;-62
2022/04/28 12:33:26;;;;;;;7.43;2.83;;;;;;;;;;5045600;28;20048;-62
2022/04/28 12:35:52;;;;;;;10.38;2.83;;;;;;;;;;5041100;28;20771;-62
2022/04/28 12:38:26;;;;;;;12.00;3.05;;;;;;;;;;5042478;28;20037;-62
2022/04/28 12:40:52;;;;;;;7.68;2.65;;;;;;;;;;5033246;28;20848;-63
2022/04/28 12:43:37;;;;;;;7.35;2.47;;;;;;;;;;5030653;28;20042;-62
2022/04/28 12:46:05;;;;;;;8.45;2.78;;;;;;;;;;5041669;28;20598;-62
2022/04/28 12:48:35;;;;;;;9.52;3.70;;;;;;;;;;5038127;28;20052;-62
2022/04/28 12:51:10;;;;;;;9.82;3.08;;;;;;;;;;5045175;28;20037;-62
2022/04/28 12:53:37;;;;;;;11.32;3.00;;;;;;;;;;5039395;28;20183;-63
2022/04/28 12:56:07;;;;;;;8.75;2.83;;;;;;;;;;5050956;28;20048;-62
2022/04/28 12:58:40;;;;;;;7.88;2.90;;;;;;;;;;5033708;28;20446;-62
2022/04/28 13:01:14;;;;;;;9.88;3.15;;;;;;;;;;5041650;28;20048;-62
2022/04/28 13:03:41;;;;;;;5.53;2.83;;;;;;;;;;5040818;28;20045;-62
2022/04/28 13:06:08;;;;;;;8.82;2.35;;;;;;;;;;5050769;28;20053;-62
2022/04/28 13:08:35;;;;;;;7.32;2.95;;;;;;;;;;5047959;28;20048;-62
2022/04/28 13:11:01;;;;;;;8.02;3.15;;;;;;;;;;5030842;28;20041;-62
2022/04/28 13:13:28;;;;;;;8.60;3.20;;;;;;;;;;5030730;28;20041;-62
2022/04/28 13:15:54;;;;;;;6.63;2.65;;;;;;;;;;5048854;28;20047;-62
2022/04/28 13:18:19;;;;;;;9.60;2.67;;;;;;;;;;5050730;28;20045;-62
2022/04/28 13:20:46;;;;;;;9.85;3.10;;;;;;;;;;5050543;28;20041;-62
2022/04/28 13:23:12;;;;;;;9.90;2.90;;;;;;;;;;5049226;28;20047;-62
2022/04/28 13:25:38;;;;;;;5.38;2.75;;;;;;;;;;5050152;28;20444;-63
2022/04/28 13:28:04;;;;;;;8.77;3.05;;;;;;;;;;5049575;28;20045;-62
2022/04/28 13:30:30;;;;;;;8.55;3.10;;;;;;;;;;5031512;28;20053;-63
2022/04/28 13:32:56;;;;;;;11.45;4.10;;;;;;;;;;5035277;28;20056;-62
2022/04/28 13:35:22;;;;;;;9.80;3.13;;;;;;;;;;5049855;28;20049;-63
2022/04/28 13:37:48;;;;;;;11.32;3.08;;;;;;;;;;5049876;28;20132;-63
2022/04/28 13:40:14;;;;;;;13.05;3.25;;;;;;;;;;5038858;28;20128;-63
2022/04/28 13:42:40;;;;;;;7.32;2.50;;;;;;;;;;5034339;28;20045;-63
2022/04/28 13:45:06;;;;;;;9.07;2.85;;;;;;;;;;5030438;28;20099;-63
2022/04/28 13:47:32;;;;;;;7.43;2.05;;;;;;;;;;5029593;28;20053;-63
2022/04/28 13:49:59;;;;;;;7.82;2.60;;;;;;;;;;5029576;28;20499;-62
2022/04/28 13:52:25;;;;;;;7.68;2.60;;;;;;;;;;5029543;28;20048;-63
2022/04/28 13:54:51;;;;;;;12.10;3.13;;;;;;;;;;5029703;28;20049;-62
2022/04/28 13:57:17;;;;;;;10.88;2.35;;;;;;;;;;5029727;28;20041;-62
2022/04/28 13:59:43;;;;;;;9.10;2.47;;;;;;;;;;5030006;28;20132;-62
2022/04/28 14:02:09;;;;;;;8.45;2.28;;;;;;;;;;5037166;28;20045;-63
2022/04/28 14:04:35;;;;;;;9.82;2.65;;;;;;;;;;5049045;28;20047;-63
2022/04/28 14:07:01;;;;;;;8.02;2.50;;;;;;;;;;5049208;28;20037;-63
2022/04/28 14:09:27;;;;;;;7.85;2.40;;;;;;;;;;5049516;28;20040;-63
2022/04/28 14:11:55;;;;;;;7.07;2.28;;;;;;;;;;5049426;28;20107;-63
2022/04/28 14:14:22;;;;;;;7.93;2.50;;;;;;;;;;5049328;28;20052;-63
2022/04/28 14:16:48;;;;;;;8.43;2.63;;;;;;;;;;5049066;28;20140;-63
2022/04/28 14:19:16;;;;;;;7.07;2.40;;;;;;;;;;5049232;28;20045;-62
2022/04/28 14:21:42;;;;;;;9.45;2.53;;;;;;;;;;5049076;28;20041;-63
2022/04/28 14:24:08;;;;;;;8.38;3.17;;;;;;;;;;5048966;28;20506;-63
2022/04/28 14:26:35;;;;;;;8.07;2.28;;;;;;;;;;5047279;28;20041;-63
2022/04/28 14:29:02;;;;;;;7.13;2.08;;;;;;;;;;5048939;28;20052;-62
2022/04/28 14:31:29;;;;;;;8.02;2.20;;;;;;;;;;5048830;28;20060;-62
2022/04/28 14:33:55;;;;;;;12.30;2.92;;;;;;;;;;5049083;28;20072;-62
2022/04/28 14:36:21;;;;;;;7.82;2.40;;;;;;;;;;5047209;28;20431;-62
2022/04/28 14:38:47;;;;;;;7.35;2.40;;;;;;;;;;5048902;28;20052;-63
2022/04/28 14:41:13;;;;;;;6.57;2.67;;;;;;;;;;5048488;28;20045;-62
2022/04/28 14:43:39;;;;;;;10.85;2.90;;;;;;;;;;5048892;28;20390;-63
2022/04/28 14:46:05;;;;;;;10.20;2.38;;;;;;;;;;5048721;28;20089;-62
2022/04/28 14:52:19;;;;;;;6.45;2.72;;;;;;;;;;5048396;28;20170;-63
2022/04/28 14:54:02;;;;;;;7.72;2.40;;;;;;;;;;5048258;28;20053;-62
2022/04/28 14:56:28;;;;;;;6.72;2.40;;;;;;;;;;5047503;28;20053;-63
2022/04/28 14:58:54;;;;;;;11.43;2.60;;;;;;;;;;5048854;28;20055;-63
2022/04/28 15:01:20;;;;;;;7.53;2.65;;;;;;;;;;5044565;28;20048;-63
2022/04/28 15:03:46;;;;;;;6.85;1.83;;;;;;;;;;5033519;28;20049;-63
2022/04/28 15:06:13;;;;;;;8.98;2.30;;;;;;;;;;5048832;28;20045;-62
2022/04/28 15:08:41;;;;;;;7.10;2.45;;;;;;;;;;5041131;28;20186;-62